Time;durP1;ratioP1;P1;durP2;ratioP2;P2;SDS_P1;SDS_P2;PMS_P1;PMS_P2;Temp;Humidity;BMP_temperature;BMP_pressure;BME280_temperature;BME280_humidity;BME280_pressure;Samples;Min_cycle;Max_cycle;Signal;HPM_P1;HPM_P2
2022/05/31 00:02:40;;;;;;;1.50;0.57;;;9.40;99.90;10.20;96696.00;;;;4991935;28;20226;-89
2022/05/31 00:05:29;;;;;;;2.00;0.80;;;9.40;99.90;10.00;96696.00;;;;4992677;28;20214;-88
2022/05/31 00:08:18;;;;;;;0.77;0.70;;;9.40;99.90;10.00;96700.00;;;;4991568;28;20673;-88
2022/05/31 00:11:07;;;;;;;1.37;0.90;;;9.60;99.90;10.00;96692.00;;;;4992635;28;20238;-88
2022/05/31 00:13:58;;;;;;;0.70;0.70;;;9.10;99.90;9.80;96694.00;;;;4992282;28;20222;-88
2022/05/31 00:16:47;;;;;;;0.57;0.57;;;9.10;99.90;9.30;96694.00;;;;4991392;28;20222;-88
2022/05/31 00:19:36;;;;;;;2.00;0.80;;;9.10;99.90;9.50;96695.00;;;;4990037;28;20210;-88
2022/05/31 00:22:27;;;;;;;1.93;0.90;;;9.20;99.90;9.70;96700.00;;;;4991390;28;20226;-87
2022/05/31 00:25:17;;;;;;;1.17;0.60;;;8.90;99.90;9.80;96704.00;;;;4991837;28;20206;-87
2022/05/31 00:28:06;;;;;;;1.30;0.80;;;9.00;99.90;9.60;96698.00;;;;4990973;28;20517;-87
2022/05/31 00:30:57;;;;;;;1.03;0.93;;;8.70;99.90;9.60;96700.00;;;;4991735;28;20276;-90
2022/05/31 00:33:46;;;;;;;0.70;0.70;;;9.20;99.90;9.50;96689.00;;;;4989680;28;20237;-89
2022/05/31 00:36:37;;;;;;;0.70;0.70;;;8.80;99.90;9.60;96698.00;;;;4990768;28;20268;-88
2022/05/31 00:39:27;;;;;;;1.23;0.90;;;9.10;99.90;9.60;96695.00;;;;4987854;28;20211;-88
2022/05/31 00:42:20;;;;;;;2.93;1.03;;;9.40;99.90;9.40;96684.00;;;;4990038;28;20226;-88
2022/05/31 00:45:10;;;;;;;0.97;0.80;;;9.00;99.90;9.60;96682.00;;;;4991053;28;20206;-89
2022/05/31 00:48:02;;;;;;;0.83;0.83;;;9.00;99.90;9.50;96684.00;;;;4989911;28;20206;-89
2022/05/31 00:50:58;;;;;;;1.67;0.90;;;8.80;99.90;9.10;96682.00;;;;4998574;28;20218;-88
2022/05/31 00:53:51;;;;;;;1.07;0.70;;;9.00;99.90;9.40;96686.00;;;;4997167;28;20312;-89
2022/05/31 00:56:41;;;;;;;0.97;0.90;;;8.70;99.90;9.20;96686.00;;;;4994534;28;20268;-89
2022/05/31 00:59:40;;;;;;;4.97;1.07;;;8.50;99.90;9.20;96690.00;;;;4990874;28;20338;-89
2022/05/31 01:02:30;;;;;;;0.93;0.93;;;8.50;99.90;9.40;96684.00;;;;5000654;28;20233;-87
2022/05/31 01:05:21;;;;;;;1.33;1.23;;;8.60;99.90;9.30;96690.00;;;;4990814;28;20253;-88
2022/05/31 01:08:11;;;;;;;1.00;0.90;;;8.50;99.90;9.10;96696.00;;;;4990451;28;20211;-87
2022/05/31 01:11:00;;;;;;;4.30;0.87;;;8.40;99.90;9.10;96698.00;;;;4991592;28;20231;-86
2022/05/31 01:13:48;;;;;;;0.80;0.80;;;8.50;99.90;9.40;96699.00;;;;4992462;28;20719;-86
2022/05/31 01:16:54;;;;;;;1.33;0.83;;;8.50;99.90;9.40;96699.00;;;;4990440;28;20207;-87
2022/05/31 01:19:59;;;;;;;0.90;0.90;;;8.60;99.90;9.20;96701.00;;;;4989313;28;20211;-88
2022/05/31 01:22:52;;;;;;;0.60;0.60;;;8.60;99.90;8.90;96699.00;;;;4991171;28;20221;-87
2022/05/31 01:26:06;;;;;;;0.90;0.90;;;8.60;99.90;9.00;96706.00;;;;4990757;28;20687;-87
2022/05/31 01:29:04;;;;;;;0.93;0.77;;;8.70;99.90;9.00;96701.00;;;;4996057;28;20303;-89
2022/05/31 01:31:59;;;;;;;0.90;0.90;;;8.50;99.90;8.80;96705.00;;;;4996622;28;20214;-87
2022/05/31 01:34:55;;;;;;;1.17;0.90;;;8.10;99.90;8.80;96710.00;;;;4996111;28;20203;-88
2022/05/31 01:37:52;;;;;;;1.20;1.10;;;8.60;99.90;9.00;96706.00;;;;4995933;28;20217;-89
2022/05/31 01:40:50;;;;;;;1.20;1.10;;;8.30;99.90;9.00;96713.00;;;;5001059;28;20625;-89
2022/05/31 01:43:43;;;;;;;0.93;0.90;;;8.40;99.90;9.10;96715.00;;;;5001105;28;20206;-88
2022/05/31 01:46:36;;;;;;;10.13;1.20;;;8.30;99.90;9.10;96720.00;;;;4998012;28;20337;-90
2022/05/31 01:49:33;;;;;;;1.83;1.00;;;8.50;99.90;8.90;96719.00;;;;4997711;28;20566;-90
2022/05/31 01:52:23;;;;;;;0.90;0.90;;;9.00;99.90;8.90;96723.00;;;;4997177;28;20331;-89
2022/05/31 01:55:14;;;;;;;0.77;0.77;;;8.00;99.90;8.60;96740.00;;;;4997277;28;20268;-88
2022/05/31 01:58:07;;;;;;;1.00;1.00;;;8.50;99.90;8.60;96736.00;;;;4996955;28;20326;-88
2022/05/31 02:00:56;;;;;;;0.70;0.70;;;8.10;99.90;8.80;96727.00;;;;5011175;28;20226;-87
2022/05/31 02:03:46;;;;;;;6.27;1.60;;;8.10;99.90;8.60;96744.00;;;;5011607;28;20210;-87
2022/05/31 02:06:39;;;;;;;1.00;1.00;;;8.30;99.90;8.50;96733.00;;;;5010694;28;20207;-88
2022/05/31 02:09:28;;;;;;;4.10;1.13;;;8.00;99.90;8.60;96748.00;;;;4997392;28;20203;-90
2022/05/31 02:12:22;;;;;;;2.97;2.83;;;8.50;99.90;8.40;96747.00;;;;4996927;28;20276;-89
2022/05/31 02:15:11;;;;;;;1.23;1.13;;;8.40;99.90;8.30;96755.00;;;;4997432;28;20305;-87
2022/05/31 02:18:01;;;;;;;1.80;1.10;;;7.80;99.90;8.40;96746.00;;;;4994852;28;20206;-89
2022/05/31 02:20:50;;;;;;;0.90;0.90;;;8.10;99.90;8.40;96744.00;;;;5010010;28;20643;-88
2022/05/31 02:23:39;;;;;;;1.20;1.10;;;8.00;99.90;8.40;96739.00;;;;4996137;28;20214;-88
2022/05/31 02:26:28;;;;;;;1.63;1.10;;;7.70;99.90;8.50;96736.00;;;;5005039;28;20202;-88
2022/05/31 02:29:22;;;;;;;1.90;1.10;;;7.60;99.90;8.40;96734.00;;;;4999222;28;20202;-87
2022/05/31 02:32:14;;;;;;;0.80;0.80;;;7.90;99.90;8.20;96730.00;;;;4996406;28;20230;-87
2022/05/31 02:35:06;;;;;;;0.73;0.73;;;7.70;99.90;8.10;96725.00;;;;4988751;28;20301;-88
2022/05/31 02:37:55;;;;;;;1.20;1.10;;;7.60;99.90;8.10;96728.00;;;;4992245;28;20245;-89
2022/05/31 02:40:44;;;;;;;2.10;1.27;;;7.50;99.90;8.20;96739.00;;;;4993775;28;20229;-88
2022/05/31 02:43:33;;;;;;;0.90;0.90;;;7.50;99.90;8.10;96736.00;;;;4994078;28;20203;-87
2022/05/31 02:46:25;;;;;;;5.70;1.00;;;7.40;99.90;8.20;96746.00;;;;4993486;28;20206;-87
2022/05/31 02:49:14;;;;;;;2.97;1.20;;;7.60;99.90;8.10;96742.00;;;;4993276;28;20195;-86
2022/05/31 02:52:04;;;;;;;1.03;0.90;;;7.40;99.90;8.00;96741.00;;;;4993891;28;20230;-88
2022/05/31 02:54:53;;;;;;;1.87;1.20;;;7.80;99.90;8.00;96735.00;;;;4993162;28;20229;-89
2022/05/31 02:57:42;;;;;;;3.03;1.30;;;7.70;99.90;8.10;96750.00;;;;5004341;28;20571;-88
2022/05/31 03:00:31;;;;;;;1.20;1.10;;;7.50;99.90;7.70;96745.00;;;;4993676;28;20215;-90
2022/05/31 03:03:22;;;;;;;1.33;1.23;;;7.60;99.90;7.40;96745.00;;;;4995487;28;20210;-91
2022/05/31 03:06:11;;;;;;;0.70;0.63;;;7.50;99.90;7.80;96749.00;;;;4995066;28;20214;-89
2022/05/31 03:09:00;;;;;;;0.97;0.97;;;7.30;99.90;7.80;96750.00;;;;4994830;28;20581;-90
2022/05/31 03:11:56;;;;;;;1.30;1.20;;;7.10;99.90;7.80;96759.00;;;;4993336;28;20603;-89
2022/05/31 03:14:51;;;;;;;1.60;1.47;;;7.40;99.90;7.90;96757.00;;;;4992562;28;20997;-90
2022/05/31 03:17:46;;;;;;;1.30;1.20;;;7.20;99.90;7.70;96761.00;;;;4990726;28;20210;-88
2022/05/31 03:20:41;;;;;;;1.80;1.53;;;7.00;99.90;7.70;96751.00;;;;4989932;28;20285;-89
2022/05/31 03:23:35;;;;;;;1.40;0.80;;;7.00;99.90;7.60;96751.00;;;;4992122;28;20203;-90
2022/05/31 03:26:27;;;;;;;1.00;1.00;;;8.00;99.90;7.40;96762.00;;;;4993170;28;20237;-88
2022/05/31 03:29:16;;;;;;;1.10;1.10;;;6.90;99.90;7.10;96762.00;;;;4991782;28;20293;-89
2022/05/31 03:32:07;;;;;;;2.77;1.20;;;7.40;99.90;7.40;96756.00;;;;4985599;28;20224;-87
2022/05/31 03:34:56;;;;;;;0.87;0.87;;;6.90;99.90;7.60;96757.00;;;;4992114;28;20235;-89
2022/05/31 03:37:46;;;;;;;1.47;1.37;;;6.80;99.90;7.80;96752.00;;;;4990378;28;20729;-88
2022/05/31 03:43:43;;;;;;;2.60;1.17;;;6.90;99.90;7.50;96751.00;;;;4990914;28;20583;-90
2022/05/31 03:46:32;;;;;;;7.37;1.40;;;7.00;99.90;7.70;96751.00;;;;4992447;28;20210;-89
2022/05/31 03:49:21;;;;;;;1.40;1.30;;;6.90;99.90;7.90;96754.00;;;;4991895;28;20217;-88
2022/05/31 03:52:10;;;;;;;1.50;1.40;;;6.90;99.90;7.90;96755.00;;;;4990843;28;20227;-88
2022/05/31 03:55:00;;;;;;;1.17;1.07;;;7.20;99.90;7.80;96763.00;;;;4992003;28;20257;-90
2022/05/31 03:57:50;;;;;;;1.27;1.10;;;7.40;99.90;8.00;96770.00;;;;4990863;28;20465;-90
2022/05/31 04:00:39;;;;;;;1.20;1.20;;;7.40;99.90;8.00;96769.00;;;;4991019;28;20246;-90
2022/05/31 04:03:29;;;;;;;1.50;1.40;;;7.20;99.90;8.10;96771.00;;;;4992287;28;20213;-89
2022/05/31 04:06:19;;;;;;;1.63;1.50;;;7.70;99.90;8.20;96771.00;;;;4990822;28;20272;-89
2022/05/31 04:09:09;;;;;;;1.77;1.27;;;7.60;99.90;8.00;96770.00;;;;4987394;28;20211;-89
2022/05/31 04:11:59;;;;;;;1.47;1.20;;;7.70;99.90;8.10;96761.00;;;;4984308;28;20219;-89
2022/05/31 04:14:48;;;;;;;2.80;1.27;;;7.80;99.90;8.10;96768.00;;;;4990652;28;20249;-90
2022/05/31 04:17:38;;;;;;;1.40;1.30;;;7.40;99.90;8.20;96767.00;;;;4986523;28;20206;-89
2022/05/31 04:20:27;;;;;;;2.33;1.37;;;7.30;99.90;7.90;96763.00;;;;4989451;28;20257;-89
2022/05/31 04:26:23;;;;;;;2.43;1.40;;;7.40;99.90;8.10;96769.00;;;;4990583;28;20198;-88
2022/05/31 04:29:14;;;;;;;1.97;1.47;;;7.50;99.90;8.40;96758.00;;;;4991344;28;20206;-89
2022/05/31 04:32:03;;;;;;;2.50;2.10;;;7.50;99.90;8.50;96758.00;;;;4992008;28;20214;-89
2022/05/31 04:34:53;;;;;;;1.63;1.53;;;7.50;99.90;8.50;96760.00;;;;4987566;28;20227;-88
2022/05/31 04:37:42;;;;;;;1.63;1.53;;;7.60;99.90;8.30;96754.00;;;;4985953;28;20221;-87
2022/05/31 04:40:31;;;;;;;1.40;1.30;;;7.60;99.90;8.60;96758.00;;;;4988843;28;20627;-90
2022/05/31 04:43:20;;;;;;;1.43;1.33;;;8.10;99.90;8.30;96762.00;;;;4987731;28;20203;-88
2022/05/31 04:46:17;;;;;;;1.50;1.40;;;8.20;99.90;8.60;96762.00;;;;4987766;28;20713;-88
2022/05/31 04:49:06;;;;;;;2.50;1.43;;;6.20;99.90;8.60;96757.00;;;;4980719;28;20199;-88
2022/05/31 04:51:55;;;;;;;2.70;1.87;;;7.90;99.90;9.10;96762.00;;;;4989000;28;20280;-88
2022/05/31 04:54:44;;;;;;;4.73;1.53;;;8.20;99.90;9.00;96771.00;;;;4989160;28;20231;-89
2022/05/31 04:57:35;;;;;;;3.87;2.20;;;8.50;99.90;9.30;96765.00;;;;4988750;28;20198;-89
2022/05/31 05:00:27;;;;;;;2.67;1.53;;;8.60;99.90;9.30;96764.00;;;;4989164;28;20666;-90
2022/05/31 05:03:17;;;;;;;2.37;2.07;;;8.80;99.90;9.30;96758.00;;;;4989954;28;20203;-89
2022/05/31 05:06:09;;;;;;;3.40;1.53;;;8.60;99.90;9.30;96755.00;;;;4989332;28;20202;-89
2022/05/31 05:08:58;;;;;;;1.57;1.47;;;8.70;99.90;9.40;96761.00;;;;4989507;28;20253;-86
2022/05/31 05:11:47;;;;;;;1.70;1.27;;;8.60;99.90;9.70;96751.00;;;;4989078;28;20230;-88
2022/05/31 05:14:36;;;;;;;3.77;2.90;;;8.70;99.90;9.80;96764.00;;;;4988230;28;20269;-86
2022/05/31 05:17:25;;;;;;;2.87;2.30;;;9.00;99.90;10.00;96771.00;;;;4987786;28;20207;-87
2022/05/31 05:20:15;;;;;;;2.17;1.97;;;9.10;99.90;10.10;96773.00;;;;4987455;28;20202;-87
2022/05/31 05:23:05;;;;;;;3.07;1.50;;;9.30;99.90;10.00;96781.00;;;;4986139;28;20206;-85
2022/05/31 05:25:56;;;;;;;1.67;1.57;;;9.30;99.90;10.40;96770.00;;;;4987283;28;20195;-86
2022/05/31 05:31:56;;;;;;;1.87;1.77;;;9.60;99.90;10.80;96786.00;;;;4983444;28;20937;-88
2022/05/31 05:34:49;;;;;;;2.20;2.10;;;9.80;99.90;11.00;96771.00;;;;4988139;28;20576;-85
2022/05/31 05:37:40;;;;;;;3.73;2.33;;;9.90;99.90;11.10;96782.00;;;;4985821;28;20205;-86
2022/05/31 05:40:29;;;;;;;2.50;2.30;;;9.80;99.90;11.40;96781.00;;;;4989597;28;20231;-86
2022/05/31 05:43:18;;;;;;;2.23;2.10;;;10.10;99.90;11.50;96779.00;;;;4994512;28;20213;-86
2022/05/31 05:46:14;;;;;;;3.60;2.57;;;10.30;99.90;11.70;96761.00;;;;4981809;28;20214;-86
2022/05/31 05:49:03;;;;;;;2.80;2.60;;;10.40;99.90;12.10;96763.00;;;;4989733;28;20210;-85
2022/05/31 05:51:52;;;;;;;2.47;2.27;;;10.70;99.90;12.40;96772.00;;;;4989090;28;20230;-86
2022/05/31 05:54:43;;;;;;;3.43;3.13;;;10.70;99.90;12.80;96779.00;;;;4988964;28;20772;-85
2022/05/31 05:57:32;;;;;;;6.23;2.53;;;11.20;99.90;12.80;96770.00;;;;4985261;28;20217;-85
2022/05/31 06:00:21;;;;;;;3.20;2.90;;;11.20;99.90;12.90;96777.00;;;;4988859;28;20210;-86
2022/05/31 06:03:17;;;;;;;2.57;2.40;;;11.60;99.90;12.90;96775.00;;;;4985361;28;20207;-86
2022/05/31 06:06:06;;;;;;;2.53;2.33;;;11.60;99.90;13.20;96782.00;;;;4989040;28;20707;-86
2022/05/31 06:09:02;;;;;;;3.43;2.80;;;11.90;99.90;13.50;96784.00;;;;4988368;28;20695;-86
2022/05/31 06:11:56;;;;;;;4.03;2.43;;;12.20;99.90;13.80;96786.00;;;;4990929;28;20230;-85
2022/05/31 06:14:50;;;;;;;3.80;2.27;;;12.20;99.90;14.00;96787.00;;;;4991329;28;20206;-87
2022/05/31 06:17:44;;;;;;;2.47;2.17;;;12.70;99.90;14.10;96781.00;;;;4992114;28;20206;-86
2022/05/31 06:20:33;;;;;;;2.47;2.27;;;12.70;99.90;14.40;96780.00;;;;4994413;28;20207;-86
2022/05/31 06:23:22;;;;;;;2.40;2.20;;;12.80;99.90;14.50;96778.00;;;;4992892;28;20593;-86
2022/05/31 06:26:11;;;;;;;2.80;2.60;;;13.10;99.90;14.70;96786.00;;;;4993582;28;20645;-89
2022/05/31 06:29:03;;;;;;;5.67;2.20;;;13.20;99.90;14.70;96782.00;;;;4993040;28;20198;-87
2022/05/31 06:31:52;;;;;;;3.67;2.50;;;13.40;99.90;15.00;96781.00;;;;4993142;28;20228;-89
2022/05/31 06:34:41;;;;;;;2.10;1.97;;;13.80;99.90;15.00;96782.00;;;;4993711;28;20210;-88
2022/05/31 06:37:30;;;;;;;2.60;2.40;;;13.60;99.90;15.00;96777.00;;;;4993850;28;20210;-86
2022/05/31 06:40:19;;;;;;;4.73;2.37;;;13.80;99.90;15.30;96781.00;;;;4993261;28;20215;-87
2022/05/31 06:43:08;;;;;;;2.23;2.03;;;13.90;99.90;15.30;96771.00;;;;4993139;28;20242;-86
2022/05/31 06:45:58;;;;;;;4.23;2.10;;;14.30;99.90;15.30;96776.00;;;;4993362;28;20713;-86
2022/05/31 06:48:47;;;;;;;2.50;2.00;;;14.30;99.90;15.40;96770.00;;;;4992328;28;20293;-87
2022/05/31 06:58:01;;;;;;;1.80;1.70;;;14.60;99.90;16.00;96757.00;;;;4992633;28;20594;-86
2022/05/31 07:00:53;;;;;;;2.37;2.10;;;14.70;99.90;16.30;96751.00;;;;4993615;28;20612;-88
2022/05/31 07:03:43;;;;;;;2.60;2.10;;;14.80;99.90;16.10;96743.00;;;;4992863;28;20218;-85
2022/05/31 07:06:33;;;;;;;2.33;2.00;;;15.00;99.90;16.30;96750.00;;;;4992989;28;20686;-87
2022/05/31 07:09:22;;;;;;;3.73;2.10;;;15.10;99.90;16.70;96753.00;;;;4993050;28;20202;-87
2022/05/31 07:12:11;;;;;;;1.63;1.53;;;15.20;99.90;16.30;96752.00;;;;4992577;28;20227;-88
2022/05/31 07:15:01;;;;;;;2.90;2.07;;;15.40;99.90;16.90;96749.00;;;;4992148;28;20266;-88
2022/05/31 07:17:50;;;;;;;3.23;1.77;;;17.00;99.90;17.10;96735.00;;;;4989519;28;20208;-89
2022/05/31 07:20:41;;;;;;;4.40;1.60;;;15.90;99.90;17.40;96734.00;;;;4988006;28;20226;-88
2022/05/31 07:23:30;;;;;;;1.63;1.53;;;16.00;99.90;17.50;96736.00;;;;4992728;28;20198;-89
2022/05/31 07:26:20;;;;;;;1.40;1.30;;;16.00;99.90;17.60;96741.00;;;;4987026;28;20202;-88
2022/05/31 07:29:22;;;;;;;2.13;1.60;;;16.70;99.90;17.80;96740.00;;;;4991329;28;20199;-89
2022/05/31 07:32:11;;;;;;;1.73;1.57;;;16.20;99.90;17.90;96731.00;;;;4992739;28;20575;-88
2022/05/31 07:35:20;;;;;;;3.10;1.40;;;16.40;99.90;18.20;96744.00;;;;4992540;28;20202;-88
2022/05/31 07:38:11;;;;;;;6.27;1.33;;;16.60;99.90;18.20;96750.00;;;;4989672;28;20202;-88
2022/05/31 07:41:00;;;;;;;2.63;1.27;;;16.80;99.90;18.40;96743.00;;;;4990185;28;20223;-88
2022/05/31 07:43:49;;;;;;;1.70;1.53;;;17.00;99.90;18.60;96735.00;;;;4991164;28;20195;-90
2022/05/31 07:46:39;;;;;;;2.90;1.70;;;17.10;99.90;18.70;96744.00;;;;4989832;28;20203;-90
2022/05/31 07:49:29;;;;;;;1.80;1.33;;;17.50;99.90;18.90;96744.00;;;;4990392;28;20238;-90
2022/05/31 07:52:19;;;;;;;3.57;1.70;;;18.00;99.90;19.00;96749.00;;;;4990480;28;20652;-89
2022/05/31 07:55:10;;;;;;;3.30;1.73;;;17.40;99.90;19.20;96742.00;;;;4987368;28;20250;-90
2022/05/31 08:01:10;;;;;;;1.27;1.17;;;18.10;99.90;19.40;96745.00;;;;4978631;28;20219;-89
2022/05/31 08:03:59;;;;;;;0.87;0.87;;;18.10;99.90;19.50;96749.00;;;;4983429;28;20214;-89
2022/05/31 08:06:49;;;;;;;2.03;1.43;;;18.30;99.90;19.40;96740.00;;;;4989090;28;20211;-88
2022/05/31 08:09:38;;;;;;;2.53;1.20;;;18.10;99.90;19.60;96744.00;;;;4983823;28;20222;-88
2022/05/31 08:12:28;;;;;;;2.03;1.40;;;18.50;99.90;20.00;96731.00;;;;4986323;28;20616;-89
2022/05/31 08:15:17;;;;;;;2.90;1.47;;;18.60;99.90;20.00;96729.00;;;;4974313;28;20207;-89
2022/05/31 08:18:07;;;;;;;1.40;1.30;;;18.50;99.90;20.20;96732.00;;;;4991133;28;20207;-88
2022/05/31 08:21:00;;;;;;;2.10;1.10;;;18.50;99.90;20.20;96736.00;;;;4990510;28;20226;-87
2022/05/31 08:23:49;;;;;;;3.63;1.20;;;18.90;99.90;20.40;96739.00;;;;4982852;28;20206;-88
2022/05/31 08:26:40;;;;;;;1.37;1.13;;;20.40;99.90;20.60;96733.00;;;;4989413;28;20217;-88
2022/05/31 08:29:32;;;;;;;2.77;1.20;;;19.00;99.90;20.30;96727.00;;;;4990743;28;20588;-87
2022/05/31 08:32:21;;;;;;;0.93;0.93;;;19.00;99.90;19.20;96721.00;;;;4990791;28;20223;-86
2022/05/31 08:35:10;;;;;;;1.20;0.90;;;19.00;97.30;19.10;96725.00;;;;4991021;28;20665;-87
2022/05/31 08:37:58;;;;;;;0.87;0.87;;;18.60;97.20;20.10;96714.00;;;;4989898;28;20234;-87
2022/05/31 08:41:01;;;;;;;0.90;0.47;;;18.60;98.50;20.00;96723.00;;;;4990592;28;20218;-87
2022/05/31 08:44:13;;;;;;;0.90;0.90;;;18.80;95.30;20.40;96717.00;;;;4991081;28;20237;-87
2022/05/31 08:47:20;;;;;;;0.90;0.63;;;18.80;93.20;21.10;96725.00;;;;4990430;28;20637;-88
2022/05/31 08:53:26;;;;;;;1.53;1.43;;;20.00;95.50;21.50;96724.00;;;;4990953;28;20210;-89
2022/05/31 08:59:33;;;;;;;0.90;0.90;;;20.20;95.50;21.50;96725.00;;;;4990388;28;20199;-88
2022/05/31 09:02:30;;;;;;;1.10;1.00;;;20.20;92.80;21.90;96713.00;;;;4991863;28;20693;-88
2022/05/31 09:05:31;;;;;;;2.43;0.90;;;20.00;93.40;22.20;96714.00;;;;4990014;28;20579;-88
2022/05/31 09:08:25;;;;;;;1.53;1.00;;;20.30;93.50;22.50;96724.00;;;;4990988;28;20232;-88
2022/05/31 09:11:20;;;;;;;1.10;1.00;;;20.70;92.90;22.90;96720.00;;;;4990967;28;20226;-88
2022/05/31 09:14:17;;;;;;;0.60;0.60;;;20.90;93.20;22.80;96716.00;;;;4991424;28;20198;-89
2022/05/31 09:17:16;;;;;;;1.53;0.90;;;21.30;92.40;23.00;96704.00;;;;4990253;28;20226;-89
2022/05/31 09:20:16;;;;;;;1.10;1.10;;;21.40;92.20;23.30;96714.00;;;;4987310;28;20260;-89
2022/05/31 09:23:05;;;;;;;4.73;0.97;;;21.30;91.20;23.40;96709.00;;;;4989868;28;20249;-89
2022/05/31 09:26:16;;;;;;;0.97;0.80;;;21.50;91.00;23.70;96713.00;;;;4997049;28;20693;-89
2022/05/31 09:29:14;;;;;;;0.80;0.80;;;21.90;90.20;23.90;96716.00;;;;4999242;28;20202;-88
2022/05/31 09:32:14;;;;;;;1.70;1.03;;;21.90;89.30;23.50;96703.00;;;;4990496;28;20702;-89
2022/05/31 09:35:20;;;;;;;1.53;0.87;;;22.20;88.30;22.70;96716.00;;;;4991278;28;20704;-87
2022/05/31 09:38:35;;;;;;;0.90;0.90;;;21.90;83.50;23.20;96712.00;;;;4989766;28;20231;-86
2022/05/31 09:41:31;;;;;;;2.63;1.47;;;22.10;87.00;23.60;96708.00;;;;4990672;28;20253;-88
2022/05/31 09:44:30;;;;;;;1.63;0.90;;;22.30;84.40;24.20;96712.00;;;;4990550;28;20194;-89
2022/05/31 09:47:24;;;;;;;2.87;0.80;;;22.20;86.70;23.10;96704.00;;;;4994404;28;20206;-89
2022/05/31 09:50:25;;;;;;;1.33;0.87;;;22.30;79.80;24.10;96701.00;;;;4992979;28;20195;-90
2022/05/31 09:59:29;;;;;;;0.70;0.70;;;22.40;81.50;23.60;96681.00;;;;4994146;28;20206;-87
2022/05/31 10:02:30;;;;;;;2.33;0.77;;;22.30;79.20;24.40;96684.00;;;;4994834;28;20229;-88
2022/05/31 10:05:23;;;;;;;2.87;1.10;;;22.80;82.40;24.80;96694.00;;;;4993922;28;20202;-88
2022/05/31 10:08:17;;;;;;;1.17;0.90;;;22.70;81.60;23.60;96675.00;;;;4992490;28;20203;-87
2022/05/31 10:11:10;;;;;;;1.07;0.83;;;23.90;77.20;24.70;96673.00;;;;4993753;28;20227;-88
2022/05/31 10:14:02;;;;;;;3.13;0.90;;;23.10;80.20;25.20;96673.00;;;;4994251;28;20214;-88
2022/05/31 10:16:51;;;;;;;1.37;1.27;;;23.20;81.30;25.00;96680.00;;;;4992794;28;20230;-88
2022/05/31 10:19:40;;;;;;;1.00;0.90;;;23.80;82.20;25.00;96665.00;;;;4993949;28;20593;-87
2022/05/31 10:22:30;;;;;;;1.30;1.00;;;23.40;72.70;24.60;96671.00;;;;4992092;28;20227;-87
2022/05/31 10:25:23;;;;;;;2.67;1.10;;;23.30;74.40;25.00;96664.00;;;;4990110;28;20210;-87
2022/05/31 10:28:15;;;;;;;3.80;1.10;;;23.30;75.30;24.00;96668.00;;;;4981418;28;20214;-87
2022/05/31 10:31:14;;;;;;;1.47;1.37;;;23.00;75.20;23.50;96667.00;;;;4992824;28;20249;-86
2022/05/31 10:34:07;;;;;;;1.70;1.43;;;23.00;74.00;24.90;96669.00;;;;4993346;28;20217;-87
2022/05/31 10:36:59;;;;;;;1.20;1.10;;;23.00;74.20;25.70;96673.00;;;;4993769;28;20218;-87
2022/05/31 10:40:02;;;;;;;4.00;1.00;;;23.30;77.20;25.90;96660.00;;;;4993475;28;20241;-88
2022/05/31 10:42:56;;;;;;;5.20;1.40;;;23.70;76.30;26.30;96668.00;;;;4993781;28;20202;-88
2022/05/31 10:45:45;;;;;;;1.60;1.30;;;23.90;76.90;25.30;96653.00;;;;4994284;28;20213;-86
2022/05/31 10:48:46;;;;;;;5.30;1.73;;;24.20;72.50;24.60;96658.00;;;;4992447;28;20725;-87
2022/05/31 10:51:50;;;;;;;2.10;1.00;;;24.10;69.10;25.90;96650.00;;;;4991292;28;20222;-87
2022/05/31 10:55:29;;;;;;;1.70;1.43;;;24.20;71.90;26.20;96647.00;;;;4992127;28;20198;-88
2022/05/31 10:58:48;;;;;;;2.70;1.03;;;24.20;71.60;27.00;96650.00;;;;4990951;28;20720;-88
2022/05/31 11:02:24;;;;;;;1.20;0.83;;;24.60;73.30;26.30;96637.00;;;;4992123;28;20285;-87
2022/05/31 11:05:17;;;;;;;0.83;0.83;;;24.90;71.20;25.60;96632.00;;;;4991766;28;20210;-87
2022/05/31 11:11:43;;;;;;;1.00;0.90;;;24.70;68.50;27.20;96637.00;;;;4991101;28;20232;-87
2022/05/31 11:14:53;;;;;;;2.10;1.03;;;25.50;73.50;26.40;96634.00;;;;4991392;28;20214;-87
2022/05/31 11:18:30;;;;;;;2.17;1.20;;;25.10;68.90;23.60;96628.00;;;;4992283;28;20230;-85
2022/05/31 11:21:41;;;;;;;3.07;1.43;;;24.30;64.10;25.80;96625.00;;;;4991737;28;20234;-83
2022/05/31 11:24:57;;;;;;;3.20;1.20;;;23.90;67.00;26.40;96630.00;;;;4990642;28;20213;-84
2022/05/31 11:28:07;;;;;;;2.30;1.00;;;24.10;69.50;26.40;96638.00;;;;4992184;28;20195;-84
2022/05/31 11:31:17;;;;;;;0.70;0.70;;;24.50;67.80;26.30;96626.00;;;;4992715;28;20657;-84
2022/05/31 11:34:26;;;;;;;2.47;1.00;;;24.50;69.30;26.30;96627.00;;;;4990117;28;20206;-83
2022/05/31 11:37:40;;;;;;;4.20;1.17;;;24.70;67.60;27.30;96638.00;;;;4989737;28;20203;-84
2022/05/31 11:40:46;;;;;;;2.73;1.17;;;24.90;66.90;27.20;96630.00;;;;4983303;28;20635;-86
2022/05/31 11:44:22;;;;;;;1.93;1.30;;;25.10;68.40;28.10;96637.00;;;;4991541;28;20590;-86
2022/05/31 11:47:35;;;;;;;1.00;0.87;;;25.50;65.80;28.20;96633.00;;;;4979818;28;20216;-86
2022/05/31 11:50:36;;;;;;;1.53;1.20;;;25.90;67.00;28.70;96630.00;;;;4985941;28;20217;-86
2022/05/31 11:53:46;;;;;;;1.40;1.13;;;26.20;68.50;28.10;96636.00;;;;4991336;28;20209;-87
2022/05/31 11:56:44;;;;;;;1.30;0.87;;;26.30;64.20;26.30;96618.00;;;;4984317;28;20969;-87
2022/05/31 11:59:39;;;;;;;2.27;1.60;;;26.40;61.50;26.60;96624.00;;;;4990831;28;20223;-87
2022/05/31 12:02:45;;;;;;;1.40;1.30;;;25.70;62.80;24.80;96619.00;;;;4986554;28;20611;-87
2022/05/31 12:05:43;;;;;;;1.10;1.00;;;25.00;63.60;26.00;96624.00;;;;4988765;28;20684;-87
2022/05/31 12:08:44;;;;;;;1.27;0.90;;;25.00;64.10;27.10;96622.00;;;;4988278;28;20300;-87
2022/05/31 12:11:40;;;;;;;2.67;1.03;;;25.10;67.00;27.20;96627.00;;;;4987855;28;20233;-87
2022/05/31 12:14:32;;;;;;;0.90;0.90;;;25.20;68.80;27.30;96621.00;;;;4982803;28;20213;-87
2022/05/31 12:17:33;;;;;;;1.30;0.87;;;25.50;67.10;27.80;96618.00;;;;4990711;28;20222;-87
2022/05/31 12:20:30;;;;;;;4.53;1.10;;;25.70;66.20;26.80;96616.00;;;;4989528;28;20216;-87
2022/05/31 12:23:26;;;;;;;1.40;1.30;;;26.00;66.30;26.00;96609.00;;;;4988643;28;20460;-86
2022/05/31 12:26:26;;;;;;;1.40;1.30;;;25.70;64.80;27.00;96610.00;;;;4990329;28;20212;-84
2022/05/31 12:29:22;;;;;;;2.00;0.70;;;25.50;64.00;28.40;96616.00;;;;4986032;28;20465;-85
2022/05/31 12:32:45;;;;;;;1.73;1.37;;;25.80;67.40;27.20;96601.00;;;;4988433;28;20765;-86
2022/05/31 12:35:57;;;;;;;1.87;1.30;;;25.10;64.50;28.30;96608.00;;;;4988608;28;20204;-86
2022/05/31 12:38:56;;;;;;;2.23;1.27;;;26.20;69.90;28.70;96604.00;;;;4988946;28;20601;-86
2022/05/31 12:41:47;;;;;;;3.77;1.40;;;26.50;68.70;28.50;96606.00;;;;4989603;28;20721;-87
2022/05/31 12:44:37;;;;;;;1.37;0.90;;;26.90;67.60;29.30;96605.00;;;;4989793;28;20290;-86
2022/05/31 12:47:31;;;;;;;1.50;1.40;;;27.20;67.00;28.90;96612.00;;;;4986773;28;20203;-87
2022/05/31 12:50:52;;;;;;;1.23;1.13;;;27.10;64.30;30.00;96595.00;;;;4979827;28;20220;-86
2022/05/31 12:54:18;;;;;;;0.88;0.88;;;27.30;66.30;29.70;96604.00;;;;4989189;28;20207;-85
2022/05/31 12:57:23;;;;;;;1.50;1.38;;;27.70;76.00;29.30;96605.00;;;;4986836;28;20403;-86
2022/05/31 13:00:28;;;;;;;1.80;1.38;;;27.90;75.50;30.40;96599.00;;;;4984909;28;20403;-86
2022/05/31 13:04:10;;;;;;;1.40;1.20;;;28.00;75.30;30.40;96598.00;;;;4987712;28;20393;-87
2022/05/31 13:07:20;;;;;;;1.52;1.20;;;28.00;62.80;28.20;96587.00;;;;4958238;28;20223;-87
2022/05/31 13:10:34;;;;;;;1.27;1.05;;;27.70;75.10;29.60;96588.00;;;;4986841;28;20235;-87
2022/05/31 13:19:54;;;;;;;2.28;1.38;;;28.00;84.10;27.00;96581.00;;;;4988686;28;20991;-87
2022/05/31 13:22:50;;;;;;;3.05;1.33;;;27.40;76.20;29.10;96573.00;;;;4984770;28;20200;-87
2022/05/31 13:25:47;;;;;;;1.23;1.10;;;27.70;81.00;29.30;96577.00;;;;4986808;28;20210;-86
2022/05/31 13:28:40;;;;;;;2.45;1.70;;;27.40;81.40;27.80;96583.00;;;;4984001;28;20206;-86
2022/05/31 13:31:33;;;;;;;2.57;1.23;;;27.30;76.60;28.70;96577.00;;;;4983839;28;20697;-86
2022/05/31 13:34:32;;;;;;;2.77;1.30;;;27.00;81.50;28.30;96567.00;;;;4982581;28;20235;-88
2022/05/31 13:37:22;;;;;;;1.80;1.30;;;27.00;79.50;30.90;96572.00;;;;4979023;28;21238;-87
2022/05/31 13:40:13;;;;;;;1.40;1.30;;;27.60;82.50;29.10;96560.00;;;;4981112;28;20267;-87
2022/05/31 13:43:06;;;;;;;3.00;1.65;;;27.90;76.60;28.70;96551.00;;;;4982501;28;20210;-86
2022/05/31 13:45:59;;;;;;;1.57;1.13;;;27.60;76.90;28.40;96551.00;;;;4981329;28;20217;-85